sensor_id;sensor_type;location;lat;lon;timestamp;pressure;altitude;pressure_sealevel;temperature;humidity
23867;BME280;12114;53.404;-1.502;2023-05-19T00:02:33;101921.59;;;13.77;100.00
23867;BME280;12114;53.404;-1.502;2023-05-19T00:05:18;101922.75;;;13.76;100.00
23867;BME280;12114;53.404;-1.502;2023-05-19T00:08:03;101915.78;;;13.82;100.00
23867;BME280;12114;53.404;-1.502;2023-05-19T00:10:47;101928.50;;;13.91;100.00
23867;BME280;12114;53.404;-1.502;2023-05-19T00:13:32;101934.22;;;13.95;100.00
23867;BME280;12114;53.404;-1.502;2023-05-19T00:16:16;101930.25;;;13.96;100.00
23867;BME280;12114;53.404;-1.502;2023-05-19T00:19:02;101929.44;;;13.95;100.00
23867;BME280;12114;53.404;-1.502;2023-05-19T00:21:46;101920.94;;;13.92;100.00
23867;BME280;12114;53.404;-1.502;2023-05-19T00:24:30;101923.81;;;13.83;100.00
23867;BME280;12114;53.404;-1.502;2023-05-19T00:27:15;101921.22;;;13.78;100.00
23867;BME280;12114;53.404;-1.502;2023-05-19T00:29:59;101927.78;;;13.82;100.00
23867;BME280;12114;53.404;-1.502;2023-05-19T00:32:43;101929.75;;;13.82;100.00
23867;BME280;12114;53.404;-1.502;2023-05-19T00:35:27;101927.19;;;13.77;100.00
23867;BME280;12114;53.404;-1.502;2023-05-19T00:38:11;101923.28;;;13.69;100.00
23867;BME280;12114;53.404;-1.502;2023-05-19T00:40:55;101920.22;;;13.62;100.00
23867;BME280;12114;53.404;-1.502;2023-05-19T00:43:38;101916.50;;;13.58;100.00
23867;BME280;12114;53.404;-1.502;2023-05-19T00:46:22;101923.03;;;13.62;100.00
23867;BME280;12114;53.404;-1.502;2023-05-19T00:49:07;101924.19;;;13.61;100.00
23867;BME280;12114;53.404;-1.502;2023-05-19T00:51:51;101918.63;;;13.61;100.00
23867;BME280;12114;53.404;-1.502;2023-05-19T00:54:35;101921.41;;;13.61;100.00
23867;BME280;12114;53.404;-1.502;2023-05-19T00:57:19;101937.69;;;13.59;100.00
23867;BME280;12114;53.404;-1.502;2023-05-19T01:00:04;101926.88;;;13.57;100.00
23867;BME280;12114;53.404;-1.502;2023-05-19T01:02:49;101932.91;;;13.59;100.00
23867;BME280;12114;53.404;-1.502;2023-05-19T01:05:34;101933.72;;;13.60;100.00
23867;BME280;12114;53.404;-1.502;2023-05-19T01:08:19;101937.56;;;13.55;100.00
23867;BME280;12114;53.404;-1.502;2023-05-19T01:11:04;101933.13;;;13.54;100.00
23867;BME280;12114;53.404;-1.502;2023-05-19T01:13:49;101932.09;;;13.59;100.00
23867;BME280;12114;53.404;-1.502;2023-05-19T01:16:36;101933.13;;;13.54;100.00
23867;BME280;12114;53.404;-1.502;2023-05-19T01:31:41;101932.31;;;13.33;100.00
23867;BME280;12114;53.404;-1.502;2023-05-19T01:34:28;101931.72;;;13.28;100.00
23867;BME280;12114;53.404;-1.502;2023-05-19T01:37:15;101926.31;;;13.23;100.00
23867;BME280;12114;53.404;-1.502;2023-05-19T01:40:00;101925.09;;;13.11;100.00
23867;BME280;12114;53.404;-1.502;2023-05-19T01:42:45;101928.72;;;13.12;100.00
23867;BME280;12114;53.404;-1.502;2023-05-19T01:45:31;101926.25;;;13.10;100.00
23867;BME280;12114;53.404;-1.502;2023-05-19T01:48:15;101925.47;;;13.10;100.00
23867;BME280;12114;53.404;-1.502;2023-05-19T01:51:00;101932.19;;;13.09;100.00
23867;BME280;12114;53.404;-1.502;2023-05-19T01:53:45;101930.53;;;13.08;100.00
23867;BME280;12114;53.404;-1.502;2023-05-19T02:00:14;101923.81;;;13.09;100.00
23867;BME280;12114;53.404;-1.502;2023-05-19T02:09:15;101913.63;;;13.04;100.00
23867;BME280;12114;53.404;-1.502;2023-05-19T02:15:06;101917.44;;;13.00;100.00
23867;BME280;12114;53.404;-1.502;2023-05-19T02:17:52;101915.81;;;12.99;100.00
23867;BME280;12114;53.404;-1.502;2023-05-19T02:20:38;101913.50;;;13.01;100.00
23867;BME280;12114;53.404;-1.502;2023-05-19T02:23:22;101922.88;;;12.96;100.00
23867;BME280;12114;53.404;-1.502;2023-05-19T02:26:06;101917.97;;;12.93;100.00
23867;BME280;12114;53.404;-1.502;2023-05-19T02:28:51;101914.72;;;12.91;100.00
23867;BME280;12114;53.404;-1.502;2023-05-19T02:31:35;101916.47;;;12.96;100.00
23867;BME280;12114;53.404;-1.502;2023-05-19T02:34:19;101917.31;;;12.96;100.00
23867;BME280;12114;53.404;-1.502;2023-05-19T02:37:04;101929.28;;;12.97;100.00
23867;BME280;12114;53.404;-1.502;2023-05-19T02:39:48;101927.63;;;12.96;100.00
23867;BME280;12114;53.404;-1.502;2023-05-19T02:42:32;101934.41;;;12.95;100.00
23867;BME280;12114;53.404;-1.502;2023-05-19T02:45:16;101925.72;;;12.88;100.00
23867;BME280;12114;53.404;-1.502;2023-05-19T02:48:00;101936.53;;;12.89;100.00
23867;BME280;12114;53.404;-1.502;2023-05-19T02:50:44;101930.13;;;12.89;100.00
23867;BME280;12114;53.404;-1.502;2023-05-19T02:53:29;101930.34;;;12.84;100.00
23867;BME280;12114;53.404;-1.502;2023-05-19T02:56:13;101934.16;;;12.79;100.00
23867;BME280;12114;53.404;-1.502;2023-05-19T02:58:57;101943.66;;;12.78;100.00
23867;BME280;12114;53.404;-1.502;2023-05-19T03:01:41;101936.94;;;12.79;100.00
23867;BME280;12114;53.404;-1.502;2023-05-19T03:04:26;101939.09;;;12.74;100.00
23867;BME280;12114;53.404;-1.502;2023-05-19T03:07:10;101935.34;;;12.70;100.00
23867;BME280;12114;53.404;-1.502;2023-05-19T03:09:56;101937.66;;;12.68;100.00
23867;BME280;12114;53.404;-1.502;2023-05-19T03:12:40;101935.53;;;12.65;100.00
23867;BME280;12114;53.404;-1.502;2023-05-19T03:15:24;101939.66;;;12.58;100.00
23867;BME280;12114;53.404;-1.502;2023-05-19T03:18:08;101932.53;;;12.49;100.00
23867;BME280;12114;53.404;-1.502;2023-05-19T03:20:52;101929.22;;;12.47;100.00
23867;BME280;12114;53.404;-1.502;2023-05-19T03:23:36;101922.56;;;12.39;100.00
23867;BME280;12114;53.404;-1.502;2023-05-19T03:26:20;101927.31;;;12.39;100.00
23867;BME280;12114;53.404;-1.502;2023-05-19T03:29:05;101924.38;;;12.35;100.00
23867;BME280;12114;53.404;-1.502;2023-05-19T03:31:50;101919.94;;;12.34;100.00
23867;BME280;12114;53.404;-1.502;2023-05-19T03:34:35;101919.59;;;12.36;100.00
23867;BME280;12114;53.404;-1.502;2023-05-19T03:37:19;101918.78;;;12.35;100.00
23867;BME280;12114;53.404;-1.502;2023-05-19T03:40:03;101920.44;;;12.36;100.00
23867;BME280;12114;53.404;-1.502;2023-05-19T03:42:48;101911.25;;;12.36;100.00
23867;BME280;12114;53.404;-1.502;2023-05-19T03:45:32;101907.16;;;12.33;100.00
23867;BME280;12114;53.404;-1.502;2023-05-19T03:48:16;101895.88;;;12.30;100.00
23867;BME280;12114;53.404;-1.502;2023-05-19T03:51:00;101898.84;;;12.25;100.00
23867;BME280;12114;53.404;-1.502;2023-05-19T03:53:44;101895.56;;;12.23;100.00
23867;BME280;12114;53.404;-1.502;2023-05-19T03:56:28;101889.81;;;12.19;100.00
23867;BME280;12114;53.404;-1.502;2023-05-19T03:59:12;101891.94;;;12.22;100.00
23867;BME280;12114;53.404;-1.502;2023-05-19T04:01:56;101884.91;;;12.25;100.00
23867;BME280;12114;53.404;-1.502;2023-05-19T04:04:41;101883.75;;;12.26;100.00
23867;BME280;12114;53.404;-1.502;2023-05-19T04:07:25;101880.78;;;12.31;100.00
23867;BME280;12114;53.404;-1.502;2023-05-19T04:10:09;101882.41;;;12.32;100.00
23867;BME280;12114;53.404;-1.502;2023-05-19T04:12:54;101883.22;;;12.32;100.00
23867;BME280;12114;53.404;-1.502;2023-05-19T04:15:38;101893.06;;;12.30;100.00
23867;BME280;12114;53.404;-1.502;2023-05-19T04:18:22;101904.38;;;12.33;100.00
23867;BME280;12114;53.404;-1.502;2023-05-19T04:21:06;101903.56;;;12.33;100.00
23867;BME280;12114;53.404;-1.502;2023-05-19T04:23:51;101892.25;;;12.29;100.00
23867;BME280;12114;53.404;-1.502;2023-05-19T04:26:36;101894.22;;;12.29;100.00
23867;BME280;12114;53.404;-1.502;2023-05-19T04:29:20;101902.59;;;12.29;100.00
23867;BME280;12114;53.404;-1.502;2023-05-19T04:32:06;101897.81;;;12.29;100.00
23867;BME280;12114;53.404;-1.502;2023-05-19T04:34:51;101912.44;;;12.26;100.00
23867;BME280;12114;53.404;-1.502;2023-05-19T04:37:35;101907.69;;;12.27;100.00
23867;BME280;12114;53.404;-1.502;2023-05-19T04:40:20;101912.59;;;12.30;100.00
23867;BME280;12114;53.404;-1.502;2023-05-19T04:43:06;101908.00;;;12.34;100.00
23867;BME280;12114;53.404;-1.502;2023-05-19T04:45:52;101908.78;;;12.34;100.00
23867;BME280;12114;53.404;-1.502;2023-05-19T04:48:36;101902.88;;;12.36;100.00
23867;BME280;12114;53.404;-1.502;2023-05-19T04:51:20;101909.91;;;12.42;100.00
23867;BME280;12114;53.404;-1.502;2023-05-19T04:54:04;101912.50;;;12.47;100.00
23867;BME280;12114;53.404;-1.502;2023-05-19T04:56:47;101904.53;;;12.37;100.00
23867;BME280;12114;53.404;-1.502;2023-05-19T04:59:32;101918.13;;;12.38;100.00
23867;BME280;12114;53.404;-1.502;2023-05-19T05:02:16;101916.63;;;12.41;100.00
23867;BME280;12114;53.404;-1.502;2023-05-19T05:05:00;101920.03;;;12.46;100.00
23867;BME280;12114;53.404;-1.502;2023-05-19T05:07:44;101922.34;;;12.44;100.00
23867;BME280;12114;53.404;-1.502;2023-05-19T05:10:28;101928.41;;;12.46;100.00
23867;BME280;12114;53.404;-1.502;2023-05-19T05:13:12;101928.09;;;12.48;100.00
23867;BME280;12114;53.404;-1.502;2023-05-19T05:15:57;101913.13;;;12.52;100.00
23867;BME280;12114;53.404;-1.502;2023-05-19T05:18:42;101918.84;;;12.56;100.00
23867;BME280;12114;53.404;-1.502;2023-05-19T05:21:27;101921.94;;;12.63;100.00
23867;BME280;12114;53.404;-1.502;2023-05-19T05:24:11;101927.81;;;12.70;100.00
23867;BME280;12114;53.404;-1.502;2023-05-19T05:26:55;101934.53;;;12.69;100.00
23867;BME280;12114;53.404;-1.502;2023-05-19T05:29:39;101922.72;;;12.72;100.00
23867;BME280;12114;53.404;-1.502;2023-05-19T05:32:23;101927.25;;;12.77;100.00
23867;BME280;12114;53.404;-1.502;2023-05-19T05:35:07;101924.47;;;12.77;100.00
23867;BME280;12114;53.404;-1.502;2023-05-19T05:37:51;101930.13;;;12.89;100.00
23867;BME280;12114;53.404;-1.502;2023-05-19T05:40:35;101917.91;;;13.02;100.00
23867;BME280;12114;53.404;-1.502;2023-05-19T05:43:19;101928.56;;;13.08;100.00
23867;BME280;12114;53.404;-1.502;2023-05-19T05:46:03;101931.44;;;13.21;100.00
23867;BME280;12114;53.404;-1.502;2023-05-19T05:48:47;101930.53;;;13.29;100.00
23867;BME280;12114;53.404;-1.502;2023-05-19T05:51:31;101927.34;;;13.39;100.00
23867;BME280;12114;53.404;-1.502;2023-05-19T05:54:19;101931.72;;;13.48;100.00
23867;BME280;12114;53.404;-1.502;2023-05-19T05:57:03;101932.09;;;13.59;100.00
23867;BME280;12114;53.404;-1.502;2023-05-19T05:59:47;101927.47;;;13.63;100.00
23867;BME280;12114;53.404;-1.502;2023-05-19T06:02:33;101923.53;;;13.64;100.00
23867;BME280;12114;53.404;-1.502;2023-05-19T06:05:17;101928.66;;;13.74;100.00
23867;BME280;12114;53.404;-1.502;2023-05-19T06:08:01;101926.50;;;13.80;100.00
23867;BME280;12114;53.404;-1.502;2023-05-19T06:10:45;101922.91;;;13.91;100.00
23867;BME280;12114;53.404;-1.502;2023-05-19T06:13:29;101932.13;;;13.92;100.00
23867;BME280;12114;53.404;-1.502;2023-05-19T06:16:13;101925.59;;;14.00;100.00
23867;BME280;12114;53.404;-1.502;2023-05-19T06:18:57;101931.00;;;14.17;100.00
23867;BME280;12114;53.404;-1.502;2023-05-19T06:21:41;101928.81;;;14.22;100.00
23867;BME280;12114;53.404;-1.502;2023-05-19T06:24:26;101924.88;;;14.36;100.00
23867;BME280;12114;53.404;-1.502;2023-05-19T06:27:10;101930.38;;;14.56;100.00
23867;BME280;12114;53.404;-1.502;2023-05-19T06:29:54;101927.94;;;14.67;100.00
23867;BME280;12114;53.404;-1.502;2023-05-19T06:32:38;101927.34;;;14.98;100.00
23867;BME280;12114;53.404;-1.502;2023-05-19T06:35:22;101931.09;;;15.29;100.00
23867;BME280;12114;53.404;-1.502;2023-05-19T06:38:06;101930.41;;;15.20;100.00
23867;BME280;12114;53.404;-1.502;2023-05-19T06:40:50;101933.47;;;15.15;100.00
23867;BME280;12114;53.404;-1.502;2023-05-19T06:43:34;101924.94;;;15.24;100.00
23867;BME280;12114;53.404;-1.502;2023-05-19T06:46:18;101928.66;;;15.28;100.00
23867;BME280;12114;53.404;-1.502;2023-05-19T06:49:02;101927.19;;;15.58;100.00
23867;BME280;12114;53.404;-1.502;2023-05-19T06:51:46;101923.63;;;16.17;100.00
23867;BME280;12114;53.404;-1.502;2023-05-19T06:54:30;101919.34;;;16.38;100.00
23867;BME280;12114;53.404;-1.502;2023-05-19T06:57:14;101913.31;;;16.21;100.00
23867;BME280;12114;53.404;-1.502;2023-05-19T06:59:58;101913.91;;;16.14;100.00
23867;BME280;12114;53.404;-1.502;2023-05-19T07:02:42;101905.59;;;16.02;100.00
23867;BME280;12114;53.404;-1.502;2023-05-19T07:05:26;101909.75;;;15.93;100.00
23867;BME280;12114;53.404;-1.502;2023-05-19T07:08:10;101910.94;;;16.07;100.00
23867;BME280;12114;53.404;-1.502;2023-05-19T07:10:54;101908.50;;;16.21;100.00
23867;BME280;12114;53.404;-1.502;2023-05-19T07:13:39;101908.59;;;16.25;100.00
23867;BME280;12114;53.404;-1.502;2023-05-19T07:16:23;101910.41;;;16.33;100.00
23867;BME280;12114;53.404;-1.502;2023-05-19T07:19:07;101912.94;;;16.22;100.00
23867;BME280;12114;53.404;-1.502;2023-05-19T07:21:51;101927.06;;;16.26;100.00
23867;BME280;12114;53.404;-1.502;2023-05-19T07:24:35;101924.63;;;16.24;100.00
23867;BME280;12114;53.404;-1.502;2023-05-19T07:27:21;101933.41;;;16.23;100.00
23867;BME280;12114;53.404;-1.502;2023-05-19T07:30:06;101932.09;;;16.20;100.00
23867;BME280;12114;53.404;-1.502;2023-05-19T07:32:50;101940.91;;;16.19;100.00
23867;BME280;12114;53.404;-1.502;2023-05-19T07:35:34;101940.16;;;16.06;100.00
23867;BME280;12114;53.404;-1.502;2023-05-19T07:38:18;101939.81;;;16.08;100.00
23867;BME280;12114;53.404;-1.502;2023-05-19T07:41:02;101949.00;;;15.93;100.00
23867;BME280;12114;53.404;-1.502;2023-05-19T07:43:46;101946.19;;;15.93;100.00
23867;BME280;12114;53.404;-1.502;2023-05-19T07:46:30;101944.13;;;16.05;100.00
23867;BME280;12114;53.404;-1.502;2023-05-19T07:49:14;101952.63;;;16.09;100.00
23867;BME280;12114;53.404;-1.502;2023-05-19T07:51:58;101957.09;;;16.10;100.00
23867;BME280;12114;53.404;-1.502;2023-05-19T07:54:42;101960.13;;;15.89;100.00
23867;BME280;12114;53.404;-1.502;2023-05-19T07:57:26;101955.00;;;15.79;100.00
23867;BME280;12114;53.404;-1.502;2023-05-19T08:00:10;101956.94;;;15.63;100.00
23867;BME280;12114;53.404;-1.502;2023-05-19T08:02:55;101956.28;;;15.42;100.00
23867;BME280;12114;53.404;-1.502;2023-05-19T08:05:39;101958.19;;;15.25;100.00
23867;BME280;12114;53.404;-1.502;2023-05-19T08:08:23;101968.13;;;15.11;100.00
23867;BME280;12114;53.404;-1.502;2023-05-19T08:11:07;101971.88;;;15.03;100.00
23867;BME280;12114;53.404;-1.502;2023-05-19T08:13:51;101963.91;;;15.17;100.00
23867;BME280;12114;53.404;-1.502;2023-05-19T08:16:35;101958.44;;;15.20;100.00
23867;BME280;12114;53.404;-1.502;2023-05-19T08:19:19;101954.56;;;15.37;100.00
23867;BME280;12114;53.404;-1.502;2023-05-19T08:22:03;101964.34;;;15.43;100.00
23867;BME280;12114;53.404;-1.502;2023-05-19T08:24:47;101961.31;;;15.48;100.00
23867;BME280;12114;53.404;-1.502;2023-05-19T08:27:32;101959.78;;;15.51;100.00
23867;BME280;12114;53.404;-1.502;2023-05-19T08:30:17;101964.47;;;15.35;100.00
23867;BME280;12114;53.404;-1.502;2023-05-19T08:33:01;101961.16;;;15.57;100.00
23867;BME280;12114;53.404;-1.502;2023-05-19T08:35:46;101964.25;;;15.79;100.00
23867;BME280;12114;53.404;-1.502;2023-05-19T08:38:30;101960.44;;;15.60;100.00
23867;BME280;12114;53.404;-1.502;2023-05-19T08:41:14;101962.59;;;15.39;100.00
23867;BME280;12114;53.404;-1.502;2023-05-19T08:43:59;101970.09;;;15.22;100.00
23867;BME280;12114;53.404;-1.502;2023-05-19T08:46:43;101968.03;;;15.19;100.00
23867;BME280;12114;53.404;-1.502;2023-05-19T08:49:31;101975.72;;;15.10;100.00
23867;BME280;12114;53.404;-1.502;2023-05-19T08:52:24;101973.25;;;15.21;100.00
23867;BME280;12114;53.404;-1.502;2023-05-19T08:55:33;101973.94;;;15.30;100.00
23867;BME280;12114;53.404;-1.502;2023-05-19T08:58:20;101975.59;;;15.19;100.00
23867;BME280;12114;53.404;-1.502;2023-05-19T09:01:06;101979.81;;;15.13;100.00
23867;BME280;12114;53.404;-1.502;2023-05-19T09:03:50;101974.88;;;15.22;100.00
23867;BME280;12114;53.404;-1.502;2023-05-19T09:06:34;101967.06;;;15.27;100.00
23867;BME280;12114;53.404;-1.502;2023-05-19T09:09:18;101964.50;;;15.22;100.00
23867;BME280;12114;53.404;-1.502;2023-05-19T09:12:03;101967.72;;;15.37;100.00
23867;BME280;12114;53.404;-1.502;2023-05-19T09:14:47;101972.50;;;15.36;100.00
23867;BME280;12114;53.404;-1.502;2023-05-19T09:17:31;101968.41;;;15.46;100.00
23867;BME280;12114;53.404;-1.502;2023-05-19T09:20:16;101970.88;;;15.59;100.00
23867;BME280;12114;53.404;-1.502;2023-05-19T09:23:00;101979.16;;;15.56;100.00
23867;BME280;12114;53.404;-1.502;2023-05-19T09:25:49;101981.38;;;15.62;100.00
23867;BME280;12114;53.404;-1.502;2023-05-19T09:28:35;101983.84;;;15.40;100.00
23867;BME280;12114;53.404;-1.502;2023-05-19T09:31:20;101981.59;;;15.45;100.00
23867;BME280;12114;53.404;-1.502;2023-05-19T09:34:11;101980.69;;;15.29;100.00
23867;BME280;12114;53.404;-1.502;2023-05-19T09:36:56;101970.00;;;15.19;100.00
23867;BME280;12114;53.404;-1.502;2023-05-19T09:39:45;101968.03;;;15.19;100.00
23867;BME280;12114;53.404;-1.502;2023-05-19T09:42:38;101973.94;;;15.18;100.00
23867;BME280;12114;53.404;-1.502;2023-05-19T09:45:22;101980.78;;;15.45;100.00
23867;BME280;12114;53.404;-1.502;2023-05-19T09:48:06;101983.09;;;15.67;100.00
23867;BME280;12114;53.404;-1.502;2023-05-19T09:50:50;101985.19;;;15.98;100.00
23867;BME280;12114;53.404;-1.502;2023-05-19T09:53:35;101974.19;;;16.20;100.00
23867;BME280;12114;53.404;-1.502;2023-05-19T09:56:19;101977.19;;;16.27;100.00
23867;BME280;12114;53.404;-1.502;2023-05-19T09:59:06;101984.91;;;16.46;100.00
23867;BME280;12114;53.404;-1.502;2023-05-19T10:01:56;101985.41;;;16.64;100.00
23867;BME280;12114;53.404;-1.502;2023-05-19T10:04:41;101986.31;;;16.68;100.00
23867;BME280;12114;53.404;-1.502;2023-05-19T10:07:25;101985.03;;;16.81;100.00
23867;BME280;12114;53.404;-1.502;2023-05-19T10:10:11;101970.19;;;16.96;100.00
23867;BME280;12114;53.404;-1.502;2023-05-19T10:12:57;101984.84;;;16.89;100.00
23867;BME280;12114;53.404;-1.502;2023-05-19T10:15:42;101979.44;;;16.81;100.00
23867;BME280;12114;53.404;-1.502;2023-05-19T10:18:28;101976.13;;;16.32;100.00
23867;BME280;12114;53.404;-1.502;2023-05-19T10:21:13;101978.94;;;16.32;100.00
23867;BME280;12114;53.404;-1.502;2023-05-19T10:23:57;101979.19;;;16.42;100.00
23867;BME280;12114;53.404;-1.502;2023-05-19T10:26:48;101975.56;;;16.42;100.00
23867;BME280;12114;53.404;-1.502;2023-05-19T10:29:37;101975.38;;;16.51;100.00
23867;BME280;12114;53.404;-1.502;2023-05-19T10:32:26;101972.81;;;16.58;100.00
23867;BME280;12114;53.404;-1.502;2023-05-19T10:35:22;101968.00;;;16.89;100.00
23867;BME280;12114;53.404;-1.502;2023-05-19T10:38:32;101970.19;;;17.50;100.00
23867;BME280;12114;53.404;-1.502;2023-05-19T10:47:13;101965.41;;;17.89;100.00
23867;BME280;12114;53.404;-1.502;2023-05-19T10:49:59;101969.63;;;17.60;100.00
23867;BME280;12114;53.404;-1.502;2023-05-19T10:52:52;101965.28;;;17.63;100.00
23867;BME280;12114;53.404;-1.502;2023-05-19T10:55:49;101951.66;;;17.65;100.00
23867;BME280;12114;53.404;-1.502;2023-05-19T11:01:33;101948.00;;;18.44;100.00
23867;BME280;12114;53.404;-1.502;2023-05-19T11:04:17;101965.56;;;17.96;100.00
23867;BME280;12114;53.404;-1.502;2023-05-19T11:07:02;101954.75;;;17.79;100.00
23867;BME280;12114;53.404;-1.502;2023-05-19T11:09:50;101958.09;;;17.84;100.00
23867;BME280;12114;53.404;-1.502;2023-05-19T11:12:43;101959.25;;;18.02;100.00
23867;BME280;12114;53.404;-1.502;2023-05-19T11:15:28;101954.59;;;18.10;100.00
23867;BME280;12114;53.404;-1.502;2023-05-19T11:18:13;101953.22;;;18.46;100.00
23867;BME280;12114;53.404;-1.502;2023-05-19T11:20:59;101951.56;;;18.64;100.00
23867;BME280;12114;53.404;-1.502;2023-05-19T11:23:44;101950.94;;;19.27;100.00
23867;BME280;12114;53.404;-1.502;2023-05-19T11:26:47;101945.16;;;19.42;100.00
23867;BME280;12114;53.404;-1.502;2023-05-19T11:29:31;101955.16;;;19.14;100.00
23867;BME280;12114;53.404;-1.502;2023-05-19T11:32:16;101944.25;;;19.08;100.00
23867;BME280;12114;53.404;-1.502;2023-05-19T11:35:01;101949.25;;;19.22;100.00
23867;BME280;12114;53.404;-1.502;2023-05-19T11:37:45;101954.56;;;18.75;100.00
23867;BME280;12114;53.404;-1.502;2023-05-19T11:40:31;101961.09;;;18.56;100.00
23867;BME280;12114;53.404;-1.502;2023-05-19T11:43:15;101956.16;;;17.88;100.00
23867;BME280;12114;53.404;-1.502;2023-05-19T11:45:59;101963.13;;;17.75;100.00
23867;BME280;12114;53.404;-1.502;2023-05-19T11:48:46;101958.69;;;17.74;100.00
23867;BME280;12114;53.404;-1.502;2023-05-19T11:51:30;101948.03;;;17.83;100.00
23867;BME280;12114;53.404;-1.502;2023-05-19T11:54:16;101950.81;;;18.02;100.00
23867;BME280;12114;53.404;-1.502;2023-05-19T11:57:02;101959.22;;;17.80;100.00
23867;BME280;12114;53.404;-1.502;2023-05-19T11:59:46;101958.56;;;17.52;100.00
23867;BME280;12114;53.404;-1.502;2023-05-19T12:02:32;101954.13;;;17.31;100.00
23867;BME280;12114;53.404;-1.502;2023-05-19T12:05:20;101953.91;;;17.40;100.00
23867;BME280;12114;53.404;-1.502;2023-05-19T12:08:05;101966.19;;;17.32;100.00
23867;BME280;12114;53.404;-1.502;2023-05-19T12:10:51;101959.56;;;17.05;100.00
23867;BME280;12114;53.404;-1.502;2023-05-19T12:13:35;101952.75;;;16.90;100.00
23867;BME280;12114;53.404;-1.502;2023-05-19T12:16:19;101970.84;;;17.09;100.00
23867;BME280;12114;53.404;-1.502;2023-05-19T12:19:07;101976.38;;;17.40;100.00
23867;BME280;12114;53.404;-1.502;2023-05-19T12:21:51;101970.28;;;17.19;100.00
23867;BME280;12114;53.404;-1.502;2023-05-19T12:24:37;101972.38;;;17.22;100.00
23867;BME280;12114;53.404;-1.502;2023-05-19T12:27:26;101957.50;;;17.56;100.00
23867;BME280;12114;53.404;-1.502;2023-05-19T12:30:11;101965.94;;;17.94;100.00
23867;BME280;12114;53.404;-1.502;2023-05-19T12:32:58;101960.13;;;18.07;100.00
23867;BME280;12114;53.404;-1.502;2023-05-19T12:35:42;101954.38;;;18.41;100.00
23867;BME280;12114;53.404;-1.502;2023-05-19T12:38:26;101951.47;;;18.15;100.00
23867;BME280;12114;53.404;-1.502;2023-05-19T12:41:10;101954.47;;;18.48;100.00
23867;BME280;12114;53.404;-1.502;2023-05-19T12:43:58;101955.63;;;18.44;100.00
23867;BME280;12114;53.404;-1.502;2023-05-19T12:46:43;101953.25;;;18.69;100.00
23867;BME280;12114;53.404;-1.502;2023-05-19T12:49:27;101960.34;;;18.40;100.00
23867;BME280;12114;53.404;-1.502;2023-05-19T12:52:12;101954.88;;;18.47;100.00
23867;BME280;12114;53.404;-1.502;2023-05-19T12:55:06;101950.44;;;18.69;100.00
23867;BME280;12114;53.404;-1.502;2023-05-19T12:57:51;101948.25;;;19.37;100.00
23867;BME280;12114;53.404;-1.502;2023-05-19T13:00:41;101950.66;;;19.35;100.00
23867;BME280;12114;53.404;-1.502;2023-05-19T13:03:27;101945.91;;;19.13;100.00
23867;BME280;12114;53.404;-1.502;2023-05-19T13:06:11;101941.19;;;18.94;100.00
23867;BME280;12114;53.404;-1.502;2023-05-19T13:08:55;101938.09;;;19.29;100.00
23867;BME280;12114;53.404;-1.502;2023-05-19T13:11:39;101945.19;;;19.76;100.00
23867;BME280;12114;53.404;-1.502;2023-05-19T13:14:27;101941.41;;;19.64;100.00
23867;BME280;12114;53.404;-1.502;2023-05-19T13:17:11;101932.66;;;19.43;100.00
23867;BME280;12114;53.404;-1.502;2023-05-19T13:19:55;101943.53;;;19.75;100.00
23867;BME280;12114;53.404;-1.502;2023-05-19T13:22:39;101934.50;;;19.62;100.00
23867;BME280;12114;53.404;-1.502;2023-05-19T13:25:24;101934.75;;;19.50;100.00
23867;BME280;12114;53.404;-1.502;2023-05-19T13:28:08;101933.44;;;18.88;100.00
23867;BME280;12114;53.404;-1.502;2023-05-19T13:30:53;101934.38;;;18.69;100.00
23867;BME280;12114;53.404;-1.502;2023-05-19T13:33:38;101938.00;;;18.96;100.00
23867;BME280;12114;53.404;-1.502;2023-05-19T13:36:22;101930.19;;;18.86;100.00
23867;BME280;12114;53.404;-1.502;2023-05-19T13:39:06;101939.59;;;18.97;100.00
23867;BME280;12114;53.404;-1.502;2023-05-19T13:41:50;101942.44;;;18.48;100.00
23867;BME280;12114;53.404;-1.502;2023-05-19T13:44:34;101930.94;;;18.83;100.00
23867;BME280;12114;53.404;-1.502;2023-05-19T13:47:18;101940.13;;;19.02;100.00
23867;BME280;12114;53.404;-1.502;2023-05-19T13:50:03;101936.75;;;18.93;100.00
23867;BME280;12114;53.404;-1.502;2023-05-19T13:52:47;101937.69;;;18.52;100.00
23867;BME280;12114;53.404;-1.502;2023-05-19T13:55:31;101928.53;;;18.81;100.00
23867;BME280;12114;53.404;-1.502;2023-05-19T13:58:15;101933.06;;;17.98;100.00
23867;BME280;12114;53.404;-1.502;2023-05-19T14:01:00;101929.88;;;18.45;100.00
23867;BME280;12114;53.404;-1.502;2023-05-19T14:03:45;101928.22;;;18.64;100.00
23867;BME280;12114;53.404;-1.502;2023-05-19T14:06:29;101915.56;;;18.77;100.00
23867;BME280;12114;53.404;-1.502;2023-05-19T14:09:12;101913.78;;;18.91;100.00
23867;BME280;12114;53.404;-1.502;2023-05-19T14:11:57;101914.78;;;19.32;100.00
23867;BME280;12114;53.404;-1.502;2023-05-19T14:14:41;101910.69;;;19.56;100.00
23867;BME280;12114;53.404;-1.502;2023-05-19T14:17:25;101924.16;;;19.73;100.00
23867;BME280;12114;53.404;-1.502;2023-05-19T14:20:10;101911.34;;;19.79;100.00
23867;BME280;12114;53.404;-1.502;2023-05-19T14:22:55;101914.06;;;19.69;100.00
23867;BME280;12114;53.404;-1.502;2023-05-19T14:25:39;101922.97;;;19.74;100.00
23867;BME280;12114;53.404;-1.502;2023-05-19T14:28:23;101914.16;;;19.42;100.00
23867;BME280;12114;53.404;-1.502;2023-05-19T14:31:11;101916.22;;;19.49;100.00
23867;BME280;12114;53.404;-1.502;2023-05-19T14:33:55;101915.19;;;19.60;100.00
23867;BME280;12114;53.404;-1.502;2023-05-19T14:36:40;101916.13;;;19.16;100.00